createdAt,value
2017-08-05T00:00:25.258Z,5.8
2017-08-05T00:01:27.752Z,5.8
2017-08-05T00:02:30.576Z,5.8
2017-08-05T00:03:33.399Z,5.8
2017-08-05T00:04:35.895Z,5.8
2017-08-05T00:05:38.384Z,5.8
2017-08-05T00:06:41.217Z,5.8
2017-08-05T00:07:43.705Z,5.8
2017-08-05T00:08:46.207Z,5.8
2017-08-05T00:09:48.694Z,5.8
2017-08-05T00:10:51.191Z,5.8
2017-08-05T00:11:53.661Z,5.8
2017-08-05T00:12:56.840Z,5.8
2017-08-05T00:13:59.668Z,5.8
2017-08-05T00:15:02.489Z,5.8
2017-08-05T00:16:05.353Z,5.8
2017-08-05T00:17:07.839Z,5.8
2017-08-05T00:18:10.347Z,5.8
2017-08-05T00:19:12.828Z,5.8
2017-08-05T00:20:15.314Z,5.8
2017-08-05T00:21:17.780Z,5.8
2017-08-05T00:22:20.615Z,5.8
2017-08-05T00:23:23.144Z,5.8
2017-08-05T00:24:25.641Z,5.8
2017-08-05T00:25:28.125Z,5.8
2017-08-05T00:26:30.953Z,5.8
2017-08-05T00:27:33.449Z,5.8
2017-08-05T00:28:35.949Z,5.8
2017-08-05T00:29:39.485Z,5.8
2017-08-05T00:30:41.980Z,5.8
2017-08-05T00:31:44.479Z,5.8
2017-08-05T00:32:47.324Z,5.8
2017-08-05T00:33:49.818Z,5.8
2017-08-05T00:34:52.293Z,5.8
2017-08-05T00:35:54.793Z,5.7
2017-08-05T00:36:57.277Z,5.8
2017-08-05T00:37:59.753Z,5.8
2017-08-05T00:39:02.593Z,5.8
2017-08-05T00:40:05.073Z,5.8
2017-08-05T00:41:08.254Z,5.8
2017-08-05T00:42:11.076Z,5.8
2017-08-05T00:43:13.563Z,5.8
2017-08-05T00:44:16.382Z,5.8
2017-08-05T00:45:18.897Z,5.8
2017-08-05T00:46:21.363Z,5.8
2017-08-05T00:47:23.879Z,5.8
2017-08-05T00:48:26.364Z,5.8
2017-08-05T00:49:29.203Z,5.8
2017-08-05T00:50:32.026Z,5.8
2017-08-05T00:51:34.520Z,5.8
2017-08-05T00:52:37.342Z,5.8
2017-08-05T00:53:39.849Z,5.8
2017-08-05T00:54:42.320Z,5.8
2017-08-05T00:55:44.818Z,5.7
2017-08-05T00:56:47.644Z,5.8
2017-08-05T00:57:50.133Z,5.8
2017-08-05T00:58:52.945Z,5.8
2017-08-05T00:59:55.783Z,5.7
2017-08-05T01:00:58.276Z,5.7
2017-08-05T01:02:00.750Z,5.8
2017-08-05T01:03:03.912Z,5.8
2017-08-05T01:04:06.454Z,5.8
2017-08-05T01:05:08.941Z,5.8
2017-08-05T01:06:11.422Z,5.7
2017-08-05T01:07:14.260Z,5.8
2017-08-05T01:08:17.086Z,5.7
2017-08-05T01:09:19.560Z,5.7
2017-08-05T01:10:22.046Z,5.7
2017-08-05T01:11:25.187Z,5.8
2017-08-05T01:12:28.367Z,5.7
2017-08-05T01:13:31.204Z,5.7
2017-08-05T01:14:33.684Z,5.8
2017-08-05T01:15:36.170Z,5.7
2017-08-05T01:16:38.653Z,5.7
2017-08-05T01:17:41.482Z,5.7
2017-08-05T01:18:43.991Z,5.8
2017-08-05T01:19:46.507Z,5.7
2017-08-05T01:20:49.327Z,5.7
2017-08-05T01:21:51.809Z,5.7
2017-08-05T01:22:54.287Z,5.8
2017-08-05T01:23:57.138Z,5.7
2017-08-05T01:24:59.985Z,5.7
2017-08-05T01:26:03.145Z,5.7
2017-08-05T01:27:05.978Z,5.8
2017-08-05T01:28:08.489Z,5.7
2017-08-05T01:29:10.975Z,5.7
2017-08-05T01:30:13.466Z,5.8
2017-08-05T01:31:16.287Z,5.7
2017-08-05T01:32:19.122Z,5.7
2017-08-05T01:33:21.954Z,5.7
2017-08-05T01:34:24.441Z,5.7
2017-08-05T01:35:26.945Z,5.8
2017-08-05T01:36:29.435Z,5.7
2017-08-05T01:37:31.916Z,5.7
2017-08-05T01:38:34.407Z,5.7
2017-08-05T01:39:37.238Z,5.7
2017-08-05T01:40:39.723Z,5.7
2017-08-05T01:41:42.212Z,5.7
2017-08-05T01:42:44.699Z,5.7
2017-08-05T01:43:47.518Z,5.7
2017-08-05T01:44:50.701Z,5.7
2017-08-05T01:45:53.518Z,5.7
2017-08-05T01:46:56.002Z,5.7
2017-08-05T01:47:58.487Z,5.8
2017-08-05T01:49:01.801Z,5.8
2017-08-05T01:50:04.302Z,5.8
2017-08-05T01:51:06.799Z,5.7
2017-08-05T01:52:09.270Z,5.7
2017-08-05T01:53:12.174Z,5.7
2017-08-05T01:54:15.015Z,5.7
2017-08-05T01:55:17.496Z,5.7
2017-08-05T01:56:19.986Z,5.7
2017-08-05T01:57:23.170Z,5.7
2017-08-05T01:58:25.664Z,5.7
2017-08-05T01:59:28.167Z,5.7
2017-08-05T02:00:31.015Z,5.7
2017-08-05T02:01:33.827Z,5.7
2017-08-05T02:02:36.650Z,5.7
2017-08-05T02:03:39.828Z,5.8
2017-08-05T02:04:42.304Z,5.7
2017-08-05T02:05:45.136Z,5.8
2017-08-05T02:06:47.987Z,5.7
2017-08-05T02:07:50.805Z,5.7
2017-08-05T02:08:53.657Z,5.7
2017-08-05T02:09:56.145Z,5.7
2017-08-05T02:10:58.618Z,5.7
2017-08-05T02:12:01.108Z,5.7
2017-08-05T02:13:03.615Z,5.7
2017-08-05T02:14:06.438Z,5.7
2017-08-05T02:15:08.927Z,5.7
2017-08-05T02:16:11.395Z,5.7
2017-08-05T02:17:13.896Z,5.7
2017-08-05T02:18:16.411Z,5.7
2017-08-05T02:19:18.914Z,5.7
2017-08-05T02:20:21.399Z,5.7
2017-08-05T02:21:23.911Z,5.7
2017-08-05T02:22:26.398Z,5.7
2017-08-05T02:23:28.889Z,5.7
2017-08-05T02:24:31.376Z,5.7
2017-08-05T02:25:34.184Z,5.7
2017-08-05T02:26:36.681Z,5.7
2017-08-05T02:27:39.511Z,5.7
2017-08-05T02:28:42.006Z,5.7
2017-08-05T02:29:44.494Z,5.6
2017-08-05T02:30:47.672Z,5.7
2017-08-05T02:31:50.523Z,5.7
2017-08-05T02:32:53.034Z,5.7
2017-08-05T02:33:55.864Z,5.7
2017-08-05T02:34:58.695Z,5.7
2017-08-05T02:36:01.174Z,5.7
2017-08-05T02:37:04.346Z,5.7
2017-08-05T02:38:06.845Z,5.7
2017-08-05T02:39:09.336Z,5.7
2017-08-05T02:40:12.528Z,5.6
2017-08-05T02:41:15.369Z,5.6
2017-08-05T02:42:18.533Z,5.7
2017-08-05T02:43:21.046Z,5.6
2017-08-05T02:44:23.541Z,5.6
2017-08-05T02:45:26.710Z,5.7
2017-08-05T02:46:29.892Z,5.6
2017-08-05T02:47:32.384Z,5.6
2017-08-05T02:48:35.210Z,5.7
2017-08-05T02:49:37.726Z,5.6
2017-08-05T02:50:40.888Z,5.6
2017-08-05T02:51:43.377Z,5.6
2017-08-05T02:52:46.220Z,5.6
2017-08-05T02:53:49.063Z,5.6
2017-08-05T02:54:52.239Z,5.6
2017-08-05T02:55:55.072Z,5.6
2017-08-05T02:56:57.562Z,5.6
2017-08-05T02:58:00.728Z,5.7
2017-08-05T02:59:03.560Z,5.6
2017-08-05T03:00:06.038Z,5.7
2017-08-05T03:01:08.888Z,5.7
2017-08-05T03:02:11.719Z,5.6
2017-08-05T03:03:14.880Z,5.6
2017-08-05T03:04:17.371Z,5.6
2017-08-05T03:05:20.215Z,5.6
2017-08-05T03:06:22.693Z,5.6
2017-08-05T03:07:25.195Z,5.6
2017-08-05T03:08:27.714Z,5.7
2017-08-05T03:09:30.200Z,5.7
2017-08-05T03:10:33.375Z,5.7
2017-08-05T03:11:36.211Z,5.6
2017-08-05T03:12:39.031Z,5.7
2017-08-05T03:13:41.528Z,5.6
2017-08-05T03:14:44.344Z,5.6
2017-08-05T03:15:47.192Z,5.6
2017-08-05T03:16:49.671Z,5.6
2017-08-05T03:17:52.169Z,5.6
2017-08-05T03:18:54.657Z,5.7
2017-08-05T03:19:57.154Z,5.6
2017-08-05T03:20:59.736Z,5.6
2017-08-05T03:22:02.583Z,5.6
2017-08-05T03:23:05.664Z,5.6
2017-08-05T03:24:08.168Z,5.6
2017-08-05T03:25:10.999Z,5.6
2017-08-05T03:26:14.859Z,5.6
2017-08-05T03:27:17.346Z,5.6
2017-08-05T03:28:20.517Z,5.6
2017-08-05T03:29:22.998Z,5.6
2017-08-05T03:30:25.514Z,5.6
2017-08-05T03:31:28.010Z,5.6
2017-08-05T03:32:30.860Z,5.6
2017-08-05T03:33:33.716Z,5.6
2017-08-05T03:34:36.194Z,5.6
2017-08-05T03:35:38.685Z,5.7
2017-08-05T03:36:41.526Z,5.6
2017-08-05T03:37:44.034Z,5.6
2017-08-05T03:38:46.515Z,5.6
2017-08-05T03:39:48.995Z,5.6
2017-08-05T03:40:51.823Z,5.6
2017-08-05T03:41:54.332Z,5.6
2017-08-05T03:42:56.812Z,5.6
2017-08-05T03:43:59.290Z,5.6
2017-08-05T03:45:02.125Z,5.6
2017-08-05T03:46:04.971Z,5.6
2017-08-05T03:47:07.465Z,5.6
2017-08-05T03:48:10.293Z,5.5
2017-08-05T03:49:13.103Z,5.6
2017-08-05T03:50:15.610Z,5.6
2017-08-05T03:51:18.790Z,5.6
2017-08-05T03:52:21.626Z,5.6
2017-08-05T03:53:24.447Z,5.6
2017-08-05T03:54:27.273Z,5.6
2017-08-05T03:55:29.748Z,5.6
2017-08-05T03:56:32.597Z,5.6
2017-08-05T03:57:35.444Z,5.6
2017-08-05T03:58:37.922Z,5.6
2017-08-05T03:59:40.411Z,5.6
2017-08-05T04:00:42.935Z,5.7
2017-08-05T04:01:45.753Z,5.6
2017-08-05T04:02:48.580Z,5.6
2017-08-05T04:03:51.059Z,5.6
2017-08-05T04:04:53.896Z,5.6
2017-08-05T04:05:56.726Z,5.6
2017-08-05T04:06:59.565Z,5.5
2017-08-05T04:08:02.731Z,5.5
2017-08-05T04:09:05.554Z,5.6
2017-08-05T04:10:08.050Z,5.6
2017-08-05T04:11:10.876Z,5.5
2017-08-05T04:12:13.718Z,5.6
2017-08-05T04:13:16.549Z,5.6
2017-08-05T04:14:19.041Z,5.6
2017-08-05T04:15:21.885Z,5.6
2017-08-05T04:16:24.363Z,5.6
2017-08-05T04:17:26.845Z,5.6
2017-08-05T04:18:29.343Z,5.6
2017-08-05T04:19:31.814Z,5.6
2017-08-05T04:20:34.656Z,5.6
2017-08-05T04:21:37.153Z,5.6
2017-08-05T04:22:39.613Z,5.6
2017-08-05T04:23:42.111Z,5.6
2017-08-05T04:24:45.308Z,5.6
2017-08-05T04:25:48.129Z,5.6
2017-08-05T04:26:50.960Z,5.5
2017-08-05T04:27:53.448Z,5.6
2017-08-05T04:28:55.939Z,5.6
2017-08-05T04:29:58.426Z,5.6
2017-08-05T04:31:00.920Z,5.6
2017-08-05T04:32:03.771Z,5.6
2017-08-05T04:33:06.267Z,5.6
2017-08-05T04:34:08.747Z,5.6
2017-08-05T04:35:11.242Z,5.6
2017-08-05T04:36:14.072Z,5.6
2017-08-05T04:37:16.565Z,5.6
2017-08-05T04:38:19.419Z,5.6
2017-08-05T04:39:22.228Z,5.6
2017-08-05T04:40:24.721Z,5.6
2017-08-05T04:41:27.215Z,5.5
2017-08-05T04:42:29.727Z,5.6
2017-08-05T04:43:32.211Z,5.6
2017-08-05T04:44:34.705Z,5.6
2017-08-05T04:45:37.528Z,5.6
2017-08-05T04:46:40.383Z,5.6
2017-08-05T04:47:42.874Z,5.6
2017-08-05T04:48:45.360Z,5.6
2017-08-05T04:49:47.860Z,5.6
2017-08-05T04:50:51.917Z,5.6
2017-08-05T04:51:54.774Z,5.6
2017-08-05T04:52:57.282Z,5.6
2017-08-05T04:54:00.110Z,5.6
2017-08-05T04:55:03.288Z,5.6
2017-08-05T04:56:05.782Z,5.6
2017-08-05T04:57:09.099Z,5.6
2017-08-05T04:58:11.922Z,5.6
2017-08-05T04:59:14.411Z,5.7
2017-08-05T05:00:17.903Z,5.6
2017-08-05T05:01:20.391Z,5.6
2017-08-05T05:02:23.242Z,5.6
2017-08-05T05:03:25.716Z,5.6
2017-08-05T05:04:28.554Z,5.6
2017-08-05T05:05:31.730Z,5.7
2017-08-05T05:06:34.240Z,5.6
2017-08-05T05:07:36.779Z,5.6
2017-08-05T05:08:39.667Z,5.6
2017-08-05T05:09:42.537Z,5.6
2017-08-05T05:10:45.033Z,5.7
2017-08-05T05:11:47.534Z,5.7
2017-08-05T05:12:49.999Z,5.7
2017-08-05T05:13:52.533Z,5.6
2017-08-05T05:14:55.407Z,5.6
2017-08-05T05:15:58.265Z,5.7
2017-08-05T05:17:00.766Z,5.7
2017-08-05T05:18:03.630Z,5.6
2017-08-05T05:19:06.132Z,5.6
2017-08-05T05:20:08.974Z,5.7
2017-08-05T05:21:11.460Z,5.6
2017-08-05T05:22:13.960Z,5.7
2017-08-05T05:23:16.818Z,5.6
2017-08-05T05:24:19.324Z,5.7
2017-08-05T05:25:21.813Z,5.7
2017-08-05T05:26:24.305Z,5.7
2017-08-05T05:27:26.793Z,5.7
2017-08-05T05:28:29.633Z,5.7
2017-08-05T05:29:32.462Z,5.7
2017-08-05T05:30:34.969Z,5.7
2017-08-05T05:31:37.461Z,5.8
2017-08-05T05:32:39.958Z,5.7
2017-08-05T05:33:42.443Z,5.7
2017-08-05T05:34:44.943Z,5.7
2017-08-05T05:35:47.783Z,5.7
2017-08-05T05:36:50.265Z,5.7
2017-08-05T05:37:53.564Z,5.7
2017-08-05T05:38:56.077Z,5.7
2017-08-05T05:39:58.925Z,5.7
2017-08-05T05:41:01.912Z,5.7
2017-08-05T05:42:05.087Z,5.7
2017-08-05T05:43:07.574Z,5.7
2017-08-05T05:44:10.063Z,5.8
2017-08-05T05:45:12.560Z,5.8
2017-08-05T05:46:15.767Z,5.7
2017-08-05T05:47:18.270Z,5.8
2017-08-05T05:48:20.741Z,5.8
2017-08-05T05:49:23.557Z,5.8
2017-08-05T05:50:26.002Z,5.7
2017-08-05T05:51:28.797Z,5.8
2017-08-05T05:52:31.370Z,5.8
2017-08-05T05:53:34.063Z,5.8
2017-08-05T05:54:36.853Z,5.8
2017-08-05T05:55:39.302Z,5.8
2017-08-05T05:56:42.446Z,5.8
2017-08-05T05:57:44.929Z,5.8
2017-08-05T05:58:47.731Z,5.8
2017-08-05T05:59:50.563Z,5.7
2017-08-05T06:00:53.025Z,5.8
2017-08-05T06:01:55.481Z,5.9
2017-08-05T06:02:58.280Z,5.8
2017-08-05T06:04:00.747Z,5.8
2017-08-05T06:05:03.876Z,5.9
2017-08-05T06:06:06.339Z,5.9
2017-08-05T06:07:08.786Z,5.9
2017-08-05T06:08:11.585Z,5.9
2017-08-05T06:09:14.038Z,5.8
2017-08-05T06:10:16.864Z,5.8
2017-08-05T06:11:19.334Z,5.8
2017-08-05T06:12:22.148Z,5.9
2017-08-05T06:13:24.607Z,5.9
2017-08-05T06:14:28.130Z,5.9
2017-08-05T06:15:30.942Z,5.9
2017-08-05T06:16:33.414Z,5.9
2017-08-05T06:17:35.881Z,5.8
2017-08-05T06:18:38.350Z,5.9
2017-08-05T06:19:41.148Z,5.9
2017-08-05T06:20:43.601Z,5.9
2017-08-05T06:21:46.083Z,5.9
2017-08-05T06:22:48.536Z,5.9
2017-08-05T06:23:50.993Z,6
2017-08-05T06:24:53.789Z,5.9
2017-08-05T06:25:56.242Z,5.9
2017-08-05T06:26:58.705Z,5.9
2017-08-05T06:28:02.176Z,6
2017-08-05T06:29:04.986Z,5.9
2017-08-05T06:30:08.129Z,5.9
2017-08-05T06:31:10.917Z,5.9
2017-08-05T06:32:13.372Z,5.9
2017-08-05T06:33:16.182Z,5.9
2017-08-05T06:34:18.967Z,5.9
2017-08-05T06:35:21.444Z,6
2017-08-05T06:36:23.881Z,5.9
2017-08-05T06:37:26.345Z,5.9
2017-08-05T06:38:28.830Z,6
2017-08-05T06:39:31.635Z,6
2017-08-05T06:40:34.434Z,5.9
2017-08-05T06:41:36.890Z,6
2017-08-05T06:42:39.355Z,6
2017-08-05T06:43:41.821Z,5.9
2017-08-05T06:44:44.281Z,6
2017-08-05T06:45:47.411Z,6
2017-08-05T06:46:49.871Z,6
2017-08-05T06:47:52.319Z,6
2017-08-05T06:48:54.785Z,6
2017-08-05T06:49:57.223Z,5.9
2017-08-05T06:50:59.681Z,6
2017-08-05T06:52:02.136Z,6
2017-08-05T06:53:05.285Z,6
2017-08-05T06:54:07.738Z,6
2017-08-05T06:55:10.193Z,6
2017-08-05T06:56:12.651Z,6
2017-08-05T06:57:15.474Z,6
2017-08-05T06:58:17.934Z,6
2017-08-05T06:59:21.072Z,6
2017-08-05T07:00:23.876Z,6
2017-08-05T07:01:26.324Z,6
2017-08-05T07:02:28.791Z,6
2017-08-05T07:03:31.245Z,6
2017-08-05T07:04:33.723Z,6
2017-08-05T07:05:37.204Z,6
2017-08-05T07:06:39.678Z,6
2017-08-05T07:07:42.149Z,6.1
2017-08-05T07:08:44.610Z,6
2017-08-05T07:09:47.404Z,6.1
2017-08-05T07:10:49.873Z,6
2017-08-05T07:11:52.336Z,6.1
2017-08-05T07:12:54.793Z,6
2017-08-05T07:13:57.245Z,6.1
2017-08-05T07:14:59.699Z,6.1
2017-08-05T07:16:02.818Z,6.1
2017-08-05T07:17:05.633Z,6.1
2017-08-05T07:18:08.432Z,6.1
2017-08-05T07:19:10.869Z,6.1
2017-08-05T07:20:13.353Z,6.1
2017-08-05T07:21:15.811Z,6.1
2017-08-05T07:22:18.263Z,6.2
2017-08-05T07:23:21.065Z,6.1
2017-08-05T07:24:23.851Z,6.1
2017-08-05T07:25:26.304Z,6.1
2017-08-05T07:26:28.771Z,6.1
2017-08-05T07:27:31.218Z,6.2
2017-08-05T07:28:33.692Z,6.2
2017-08-05T07:29:36.142Z,6.1
2017-08-05T07:30:38.600Z,6.2
2017-08-05T07:31:41.070Z,6.2
2017-08-05T07:32:43.890Z,6.2
2017-08-05T07:33:46.358Z,6.2
2017-08-05T07:34:49.158Z,6.1
2017-08-05T07:35:51.975Z,6.1
2017-08-05T07:36:54.766Z,6.2
2017-08-05T07:37:57.229Z,6.2
2017-08-05T07:38:59.680Z,6.2
2017-08-05T07:40:02.472Z,6.2
2017-08-05T07:41:05.259Z,6.1
2017-08-05T07:42:07.729Z,6.1
2017-08-05T07:43:10.186Z,6.2
2017-08-05T07:44:12.982Z,6.2
2017-08-05T07:45:15.436Z,6.2
2017-08-05T07:46:18.247Z,6.2
2017-08-05T07:47:20.696Z,6.2
2017-08-05T07:48:23.492Z,6.2
2017-08-05T07:49:25.952Z,6.2
2017-08-05T07:50:28.759Z,6.3
2017-08-05T07:51:31.216Z,6.2
2017-08-05T07:52:33.671Z,6.2
2017-08-05T07:53:36.476Z,6.2
2017-08-05T07:54:38.944Z,6.2
2017-08-05T07:55:41.392Z,6.2
2017-08-05T07:56:43.841Z,6.2
2017-08-05T07:57:46.312Z,6.3
2017-08-05T07:58:48.766Z,6.3
2017-08-05T07:59:51.894Z,6.3
2017-08-05T08:00:54.706Z,6.2
2017-08-05T08:01:57.171Z,6.2
2017-08-05T08:02:59.625Z,6.3
2017-08-05T08:04:02.112Z,6.3
2017-08-05T08:05:04.920Z,6.2
2017-08-05T08:06:07.379Z,6.3
2017-08-05T08:07:09.845Z,6.2
2017-08-05T08:08:12.297Z,6.3
2017-08-05T08:09:14.768Z,6.3
2017-08-05T08:10:17.570Z,6.3
2017-08-05T08:11:20.363Z,6.3
2017-08-05T08:12:23.170Z,6.3
2017-08-05T08:13:25.969Z,6.2
2017-08-05T08:14:28.432Z,6.3
2017-08-05T08:15:30.893Z,6.3
2017-08-05T08:16:33.369Z,6.3
2017-08-05T08:17:36.162Z,6.2
2017-08-05T08:18:38.941Z,6.3
2017-08-05T08:19:41.411Z,6.2
2017-08-05T08:20:44.211Z,6.3
2017-08-05T08:21:46.665Z,6.3
2017-08-05T08:22:49.476Z,6.3
2017-08-05T08:23:51.934Z,6.4
2017-08-05T08:24:55.089Z,6.3
2017-08-05T08:25:57.899Z,6.3
2017-08-05T08:27:00.351Z,6.3
2017-08-05T08:28:02.800Z,6.3
2017-08-05T08:29:05.263Z,6.3
2017-08-05T08:30:08.071Z,6.2
2017-08-05T08:31:10.529Z,6.3
2017-08-05T08:32:13.001Z,6.3
2017-08-05T08:33:15.469Z,6.3
2017-08-05T08:34:17.932Z,6.3
2017-08-05T08:35:20.391Z,6.3
2017-08-05T08:36:22.844Z,6.3
2017-08-05T08:37:25.310Z,6.3
2017-08-05T08:38:28.098Z,6.3
2017-08-05T08:39:30.553Z,6.3
2017-08-05T08:40:33.044Z,6.3
2017-08-05T08:41:35.511Z,6.3
2017-08-05T08:42:37.953Z,6.3
2017-08-05T08:43:40.406Z,6.3
2017-08-05T08:44:42.886Z,6.3
2017-08-05T08:45:45.353Z,6.3
2017-08-05T08:46:47.811Z,6.4
2017-08-05T08:47:50.597Z,6.3
2017-08-05T08:48:53.067Z,6.4
2017-08-05T08:49:55.531Z,6.3
2017-08-05T08:50:58.331Z,6.3
2017-08-05T08:52:00.777Z,6.3
2017-08-05T08:53:04.247Z,6.4
2017-08-05T08:54:07.067Z,6.4
2017-08-05T08:55:09.520Z,6.4
2017-08-05T08:56:12.316Z,6.3
2017-08-05T08:57:15.115Z,6.4
2017-08-05T08:58:17.914Z,6.3
2017-08-05T08:59:20.361Z,6.4
2017-08-05T09:00:22.836Z,6.4
2017-08-05T09:01:25.647Z,6.4
2017-08-05T09:02:28.135Z,6.3
2017-08-05T09:03:30.930Z,6.4
2017-08-05T09:04:33.407Z,6.3
2017-08-05T09:05:35.864Z,6.4
2017-08-05T09:06:38.691Z,6.4
2017-08-05T09:07:41.163Z,6.4
2017-08-05T09:08:43.966Z,6.4
2017-08-05T09:09:46.422Z,6.4
2017-08-05T09:10:48.885Z,6.4
2017-08-05T09:11:51.338Z,6.3
2017-08-05T09:12:53.814Z,6.3
2017-08-05T09:13:56.253Z,6.4
2017-08-05T09:14:58.715Z,6.4
2017-08-05T09:16:01.173Z,6.4
2017-08-05T09:17:04.011Z,6.4
2017-08-05T09:18:07.148Z,6.4
2017-08-05T09:19:10.277Z,6.4
2017-08-05T09:20:12.728Z,6.4
2017-08-05T09:21:15.898Z,6.4
2017-08-05T09:22:18.345Z,6.4
2017-08-05T09:23:20.810Z,6.4
2017-08-05T09:24:23.257Z,6.4
2017-08-05T09:25:26.406Z,6.4
2017-08-05T09:26:28.877Z,6.4
2017-08-05T09:27:31.672Z,6.4
2017-08-05T09:28:34.501Z,6.4
2017-08-05T09:29:36.965Z,6.4
2017-08-05T09:30:39.755Z,6.3
2017-08-05T09:31:42.232Z,6.4
2017-08-05T09:32:44.690Z,6.4
2017-08-05T09:33:47.141Z,6.3
2017-08-05T09:34:49.611Z,6.4
2017-08-05T09:35:52.060Z,6.4
2017-08-05T09:36:54.521Z,6.3
2017-08-05T09:37:57.321Z,6.3
2017-08-05T09:39:00.121Z,6.4
2017-08-05T09:40:02.931Z,6.3
2017-08-05T09:41:05.739Z,6.3
2017-08-05T09:42:08.189Z,6.3
2017-08-05T09:43:10.993Z,6.4
2017-08-05T09:44:13.448Z,6.3
2017-08-05T09:45:15.901Z,6.3
2017-08-05T09:46:18.357Z,6.3
2017-08-05T09:47:20.823Z,6.3
2017-08-05T09:48:23.608Z,6.3
2017-08-05T09:49:27.097Z,6.3
2017-08-05T09:50:29.554Z,6.3
2017-08-05T09:51:32.341Z,6.3
2017-08-05T09:52:34.797Z,6.3
2017-08-05T09:53:37.263Z,6.3
2017-08-05T09:54:39.725Z,6.3
2017-08-05T09:55:42.191Z,6.3
2017-08-05T09:56:44.991Z,6.3
2017-08-05T09:57:47.790Z,6.3
2017-08-05T09:58:50.237Z,6.4
2017-08-05T09:59:52.702Z,6.3
2017-08-05T10:00:55.187Z,6.3
2017-08-05T10:01:57.981Z,6.3
2017-08-05T10:03:00.780Z,6.4
2017-08-05T10:04:03.584Z,6.3
2017-08-05T10:05:06.736Z,6.3
2017-08-05T10:06:09.202Z,6.3
2017-08-05T10:07:11.657Z,6.3
2017-08-05T10:08:14.107Z,6.3
2017-08-05T10:09:16.575Z,6.3
2017-08-05T10:10:19.025Z,6.3
2017-08-05T10:11:21.834Z,6.3
2017-08-05T10:12:24.304Z,6.3
2017-08-05T10:13:27.085Z,6.4
2017-08-05T10:14:29.549Z,6.5
2017-08-05T10:15:32.014Z,6.4
2017-08-05T10:16:34.465Z,6.3
2017-08-05T10:17:37.269Z,6.4
2017-08-05T10:18:40.417Z,6.3
2017-08-05T10:19:42.870Z,6.3
2017-08-05T10:20:46.356Z,6.4
2017-08-05T10:21:48.815Z,6.3
2017-08-05T10:22:51.258Z,6.3
2017-08-05T10:23:53.731Z,6.3
2017-08-05T10:24:56.190Z,6.4
2017-08-05T10:25:58.662Z,6.3
2017-08-05T10:27:01.449Z,6.3
2017-08-05T10:28:04.272Z,6.3
2017-08-05T10:29:06.730Z,6.4
2017-08-05T10:30:10.212Z,6.3
2017-08-05T10:31:13.010Z,6.3
2017-08-05T10:32:15.818Z,6.3
2017-08-05T10:33:18.284Z,6.3
2017-08-05T10:34:20.771Z,6.3
2017-08-05T10:35:23.570Z,6.3
2017-08-05T10:36:26.379Z,6.3
2017-08-05T10:37:28.838Z,6.3
2017-08-05T10:38:31.299Z,6.3
2017-08-05T10:39:33.743Z,6.3
2017-08-05T10:40:36.557Z,6.3
2017-08-05T10:41:39.367Z,6.3
2017-08-05T10:42:41.829Z,6.3
2017-08-05T10:43:44.621Z,6.3
2017-08-05T10:44:47.071Z,6.3
2017-08-05T10:45:49.537Z,6.3
2017-08-05T10:46:52.349Z,6.3
2017-08-05T10:47:55.135Z,6.3
2017-08-05T10:48:57.944Z,6.3
2017-08-05T10:50:00.749Z,6.4
2017-08-05T10:51:03.553Z,6.3
2017-08-05T10:52:06.694Z,6.3
2017-08-05T10:53:09.831Z,6.3
2017-08-05T10:54:12.293Z,6.3
2017-08-05T10:55:14.758Z,6.3
2017-08-05T10:56:17.225Z,6.3
2017-08-05T10:57:20.035Z,6.3
2017-08-05T10:58:23.197Z,6.3
2017-08-05T10:59:25.650Z,6.3
2017-08-05T11:00:28.104Z,6.3
2017-08-05T11:01:30.576Z,6.3
2017-08-05T11:02:33.032Z,6.3
2017-08-05T11:03:35.833Z,6.3
2017-08-05T11:04:38.997Z,6.3
2017-08-05T11:05:41.801Z,6.3
2017-08-05T11:06:44.601Z,6.4
2017-08-05T11:07:47.433Z,6.3
2017-08-05T11:08:49.892Z,6.3
2017-08-05T11:09:52.389Z,6.4
2017-08-05T11:10:55.176Z,6.3
2017-08-05T11:12:49.334Z,6.3
2017-08-05T11:13:51.850Z,6.3
2017-08-05T11:14:54.410Z,6.3
2017-08-05T11:15:56.943Z,6.3
2017-08-05T11:16:59.468Z,6.3
2017-08-05T11:18:03.012Z,6.3
2017-08-05T11:19:05.879Z,6.3
2017-08-05T11:20:08.759Z,6.3
2017-08-05T11:21:11.298Z,6.3
2017-08-05T11:22:13.866Z,6.3
2017-08-05T11:23:16.404Z,6.3
2017-08-05T11:24:18.981Z,6.3
2017-08-05T11:25:22.221Z,6.3
2017-08-05T11:26:24.745Z,6.3
2017-08-05T11:27:27.269Z,6.3
2017-08-05T11:28:30.130Z,6.3
2017-08-05T11:29:32.651Z,6.4
2017-08-05T11:30:35.530Z,6.3
2017-08-05T11:31:38.052Z,6.3
2017-08-05T11:32:40.619Z,6.3
2017-08-05T11:33:43.471Z,6.3
2017-08-05T11:34:46.639Z,6.3
2017-08-05T11:35:49.149Z,6.3
2017-08-05T11:36:51.646Z,6.3
2017-08-05T11:37:54.137Z,6.3
2017-08-05T11:38:56.652Z,6.3
2017-08-05T11:39:59.146Z,6.3
2017-08-05T11:41:01.643Z,6.3
2017-08-05T11:42:04.502Z,6.3
2017-08-05T11:43:07.002Z,6.3
2017-08-05T11:44:09.847Z,6.3
2017-08-05T11:45:12.700Z,6.3
2017-08-05T11:46:15.215Z,6.3
2017-08-05T11:47:17.718Z,6.3
2017-08-05T11:48:20.232Z,6.3
2017-08-05T11:49:23.076Z,6.3
2017-08-05T11:50:25.582Z,6.3
2017-08-05T11:51:28.111Z,6.3
2017-08-05T11:52:30.610Z,6.3
2017-08-05T11:53:33.107Z,6.3
2017-08-05T11:54:35.623Z,6.3
2017-08-05T11:55:41.004Z,6.2
2017-08-05T11:56:44.384Z,6.3
2017-08-05T11:57:47.570Z,6.3
2017-08-05T11:58:50.091Z,6.3
2017-08-05T11:59:52.653Z,6.3
2017-08-05T12:00:55.150Z,6.3
2017-08-05T12:01:57.659Z,6.3
2017-08-05T12:03:00.506Z,6.3
2017-08-05T12:04:04.059Z,6.3
2017-08-05T12:05:06.568Z,6.3
2017-08-05T12:06:09.404Z,6.3
2017-08-05T12:07:11.943Z,6.3
2017-08-05T12:08:14.451Z,6.3
2017-08-05T12:09:16.970Z,6.3
2017-08-05T12:10:19.469Z,6.3
2017-08-05T12:11:21.987Z,6.3
2017-08-05T12:12:24.491Z,6.3
2017-08-05T12:13:27.001Z,6.3
2017-08-05T12:14:29.503Z,6.3
2017-08-05T12:15:31.999Z,6.3
2017-08-05T12:16:34.495Z,6.3
2017-08-05T12:17:37.676Z,6.3
2017-08-05T12:18:40.116Z,6.3
2017-08-05T12:19:42.543Z,6.2
2017-08-05T12:20:44.987Z,6.3
2017-08-05T12:21:47.431Z,6.3
2017-08-05T12:22:49.843Z,6.3
2017-08-05T12:23:52.271Z,6.3
2017-08-05T12:24:55.061Z,6.3
2017-08-05T12:25:57.830Z,6.3
2017-08-05T12:27:00.266Z,6.3
2017-08-05T12:28:03.058Z,6.3
2017-08-05T12:29:05.486Z,6.3
2017-08-05T12:30:07.916Z,6.3
2017-08-05T12:31:11.033Z,6.3
2017-08-05T12:32:13.461Z,6.3
2017-08-05T12:33:15.908Z,6.3
2017-08-05T12:34:18.351Z,6.3
2017-08-05T12:35:20.801Z,6.3
2017-08-05T12:36:23.568Z,6.3
2017-08-05T12:37:26.004Z,6.3
2017-08-05T12:38:28.438Z,6.3
2017-08-05T12:39:30.859Z,6.3
2017-08-05T12:40:33.315Z,6.3
2017-08-05T12:41:36.041Z,6.3
2017-08-05T12:42:38.809Z,6.2
2017-08-05T12:43:41.606Z,6.2
2017-08-05T12:44:44.739Z,6.3
2017-08-05T12:45:47.179Z,6.3
2017-08-05T12:46:49.634Z,6.3
2017-08-05T12:47:52.736Z,6.2
2017-08-05T12:48:55.183Z,6.3
2017-08-05T12:49:57.615Z,6.2
2017-08-05T12:51:00.038Z,6.3
2017-08-05T12:52:02.805Z,6.3
2017-08-05T12:53:05.236Z,6.2
2017-08-05T12:54:07.988Z,6.3
2017-08-05T12:55:10.427Z,6.2
2017-08-05T12:56:13.199Z,6.2
2017-08-05T12:57:15.641Z,6.3
2017-08-05T12:58:18.421Z,6.3
2017-08-05T12:59:20.850Z,6.3
2017-08-05T13:00:23.636Z,6.3
2017-08-05T13:01:26.062Z,6.2
2017-08-05T13:02:28.503Z,6.3
2017-08-05T13:03:31.268Z,6.3
2017-08-05T13:04:34.053Z,6.3
2017-08-05T13:05:36.484Z,6.3
2017-08-05T13:06:38.913Z,6.3
2017-08-05T13:07:41.689Z,6.3
2017-08-05T13:08:44.127Z,6.3
2017-08-05T13:09:46.896Z,6.3
2017-08-05T13:10:49.340Z,6.3
2017-08-05T13:11:52.127Z,6.3
2017-08-05T13:12:54.542Z,6.3
2017-08-05T13:13:56.977Z,6.3
2017-08-05T13:14:59.396Z,6.3
2017-08-05T13:16:02.519Z,6.3
2017-08-05T13:17:05.651Z,6.3
2017-08-05T13:18:08.070Z,6.3
2017-08-05T13:19:10.508Z,6.3
2017-08-05T13:20:13.274Z,6.3
2017-08-05T13:21:15.688Z,6.2
2017-08-05T13:22:18.142Z,6.3
2017-08-05T13:23:20.572Z,6.3
2017-08-05T13:24:23.018Z,6.3
2017-08-05T13:25:25.433Z,6.3
2017-08-05T13:26:28.194Z,6.3
2017-08-05T13:27:30.975Z,6.3
2017-08-05T13:28:33.403Z,6.3
2017-08-05T13:29:35.834Z,6.3
2017-08-05T13:30:38.263Z,6.3
2017-08-05T13:31:40.684Z,6.3
2017-08-05T13:32:43.119Z,6.3
2017-08-05T13:33:45.876Z,6.3
2017-08-05T13:34:48.628Z,6.3
2017-08-05T13:35:51.393Z,6.3
2017-08-05T13:36:53.809Z,6.3
2017-08-05T13:37:56.219Z,6.3
2017-08-05T13:38:58.646Z,6.3
2017-08-05T13:40:02.435Z,6.3
2017-08-05T13:41:05.205Z,6.3
2017-08-05T13:42:08.657Z,6.3
2017-08-05T13:43:11.434Z,6.3
2017-08-05T13:44:13.849Z,6.3
2017-08-05T13:45:16.635Z,6.2
2017-08-05T13:46:19.401Z,6.2
2017-08-05T13:47:22.184Z,6.3
2017-08-05T13:48:24.626Z,6.2
2017-08-05T13:49:27.733Z,6.3
2017-08-05T13:50:30.505Z,6.3
2017-08-05T13:51:32.946Z,6.3
2017-08-05T13:52:35.361Z,6.3
2017-08-05T13:53:37.785Z,6.3
2017-08-05T13:54:40.210Z,6.3
2017-08-05T13:55:42.644Z,6.3
2017-08-05T13:56:45.060Z,6.3
2017-08-05T13:57:47.814Z,6.3
2017-08-05T13:58:50.256Z,6.2
2017-08-05T13:59:52.681Z,6.3
2017-08-05T14:00:55.094Z,6.2
2017-08-05T14:01:57.520Z,6.3
2017-08-05T14:02:59.974Z,6.3
2017-08-05T14:04:03.076Z,6.3
2017-08-05T14:05:05.862Z,6.3
2017-08-05T14:06:08.623Z,6.2
2017-08-05T14:07:11.723Z,6.2
2017-08-05T14:08:14.188Z,6.3
2017-08-05T14:09:17.281Z,6.2
2017-08-05T14:10:20.718Z,6.2
2017-08-05T14:11:23.141Z,6.2
2017-08-05T14:12:25.552Z,6.2
2017-08-05T14:13:27.970Z,6.3
2017-08-05T14:14:30.397Z,6.3
2017-08-05T14:15:33.162Z,6.2
2017-08-05T14:16:35.944Z,6.3
2017-08-05T14:17:38.371Z,6.2
2017-08-05T14:18:40.787Z,6.3
2017-08-05T14:19:43.220Z,6.3
2017-08-05T14:20:46.008Z,6.2
2017-08-05T14:21:48.423Z,6.3
2017-08-05T14:22:51.206Z,6.2
2017-08-05T14:23:53.973Z,6.3
2017-08-05T14:24:57.074Z,6.3
2017-08-05T14:25:59.501Z,6.3